createdAt,value
2022-09-26T00:00:34.090Z,4.46
2022-09-26T00:01:24.988Z,4.68
2022-09-26T00:02:11.385Z,4.51
2022-09-26T00:02:57.796Z,4.20
2022-09-26T00:03:45.614Z,4.50
2022-09-26T00:04:33.090Z,4.17
2022-09-26T00:05:19.540Z,4.65
2022-09-26T00:06:07.916Z,4.75
2022-09-26T00:06:55.901Z,4.58
2022-09-26T00:07:42.326Z,4.61
2022-09-26T00:08:29.255Z,4.52
2022-09-26T00:09:16.369Z,4.70
2022-09-26T00:10:03.165Z,4.52
2022-09-26T00:10:54.852Z,4.36
2022-09-26T00:11:42.008Z,4.79
2022-09-26T00:12:28.466Z,4.42
2022-09-26T00:13:14.786Z,4.42
2022-09-26T00:14:03.629Z,4.86
2022-09-26T00:14:49.965Z,4.44
2022-09-26T00:15:36.363Z,4.40
2022-09-26T00:16:24.115Z,4.53
2022-09-26T00:17:10.562Z,4.59
2022-09-26T00:17:57.296Z,4.57
2022-09-26T00:18:47.577Z,4.32
2022-09-26T00:19:34.235Z,3.95
2022-09-26T00:20:21.613Z,4.36
2022-09-26T00:21:09.912Z,4.66
2022-09-26T00:21:57.257Z,3.96
2022-09-26T00:22:43.558Z,4.18
2022-09-26T00:23:30.110Z,4.57
2022-09-26T00:24:16.493Z,4.38
2022-09-26T00:25:02.882Z,4.36
2022-09-26T00:25:51.424Z,4.31
2022-09-26T00:26:38.582Z,4.40
2022-09-26T00:27:24.929Z,4.03
2022-09-26T00:28:11.250Z,4.23
2022-09-26T00:28:58.294Z,4.90
2022-09-26T00:29:44.872Z,4.94
2022-09-26T00:30:31.372Z,4.69
2022-09-26T00:31:20.157Z,4.93
2022-09-26T00:32:06.528Z,4.96
2022-09-26T00:32:52.867Z,5.24
2022-09-26T00:33:39.414Z,5.13
2022-09-26T00:34:25.720Z,5.02
2022-09-26T00:35:12.143Z,4.71
2022-09-26T00:35:59.057Z,4.65
2022-09-26T00:36:45.510Z,5.05
2022-09-26T00:37:32.160Z,5.53
2022-09-26T00:38:18.585Z,5.79
2022-09-26T00:39:06.115Z,5.91
2022-09-26T00:39:52.525Z,6.03
2022-09-26T00:40:38.890Z,5.82
2022-09-26T00:41:25.282Z,5.73
2022-09-26T00:42:15.424Z,5.74
2022-09-26T00:43:01.909Z,6.37
2022-09-26T00:43:49.985Z,6.40
2022-09-26T00:44:42.758Z,5.98
2022-09-26T00:45:31.196Z,5.55
2022-09-26T00:46:24.019Z,5.61
2022-09-26T00:47:28.568Z,5.66
2022-09-26T00:48:15.155Z,5.54
2022-09-26T00:49:01.432Z,5.41
2022-09-26T00:49:51.405Z,5.50
2022-09-26T00:50:40.723Z,5.66
2022-09-26T00:51:27.295Z,5.11
2022-09-26T00:52:34.278Z,4.46
2022-09-26T00:53:25.527Z,4.82
2022-09-26T00:54:15.223Z,4.84
2022-09-26T00:55:04.226Z,4.88
2022-09-26T00:55:55.823Z,4.50
2022-09-26T00:56:45.101Z,4.73
2022-09-26T00:57:35.808Z,4.52
2022-09-26T00:58:26.199Z,4.80
2022-09-26T00:59:12.751Z,4.91
2022-09-26T01:00:01.863Z,4.78
2022-09-26T01:00:49.877Z,4.47
2022-09-26T01:01:37.061Z,4.36
2022-09-26T01:02:26.104Z,4.30
2022-09-26T01:03:14.738Z,4.74
2022-09-26T01:04:02.485Z,4.76
2022-09-26T01:04:49.076Z,4.72
2022-09-26T01:05:37.801Z,4.48
2022-09-26T01:06:24.336Z,4.83
2022-09-26T01:07:17.155Z,4.53
2022-09-26T01:08:05.422Z,4.89
2022-09-26T01:08:56.290Z,4.78
2022-09-26T01:09:43.042Z,4.42
2022-09-26T01:10:30.077Z,4.86
2022-09-26T01:11:17.388Z,4.86
2022-09-26T01:12:05.786Z,4.66
2022-09-26T01:12:52.549Z,4.26
2022-09-26T01:13:39.146Z,4.47
2022-09-26T01:14:25.872Z,4.68
2022-09-26T01:15:12.644Z,4.59
2022-09-26T01:16:00.050Z,5.05
2022-09-26T01:16:48.801Z,4.97
2022-09-26T01:17:39.994Z,4.63
2022-09-26T01:18:27.147Z,4.66
2022-09-26T01:19:19.191Z,4.50
2022-09-26T01:20:43.995Z,4.76
2022-09-26T01:21:48.814Z,4.68
2022-09-26T01:22:53.968Z,4.79
2022-09-26T01:23:40.621Z,4.42
2022-09-26T01:24:45.640Z,4.77
2022-09-26T01:25:35.000Z,4.62
2022-09-26T01:26:48.892Z,4.84
2022-09-26T01:27:44.764Z,4.69
2022-09-26T01:28:49.861Z,4.88
2022-09-26T01:29:54.901Z,4.30
2022-09-26T01:30:50.068Z,4.54
2022-09-26T01:32:05.514Z,4.70
2022-09-26T01:33:13.415Z,4.19
2022-09-26T01:34:22.304Z,4.43
2022-09-26T01:35:27.272Z,4.48
2022-09-26T01:36:30.424Z,4.61
2022-09-26T01:37:17.229Z,4.43
2022-09-26T01:38:18.484Z,4.55
2022-09-26T01:39:13.859Z,4.72
2022-09-26T01:40:10.806Z,4.37
2022-09-26T01:41:06.005Z,4.50
2022-09-26T01:42:01.013Z,4.75
2022-09-26T01:42:56.310Z,4.40
2022-09-26T01:43:44.744Z,4.47
2022-09-26T01:44:48.301Z,4.63
2022-09-26T01:45:45.964Z,4.25
2022-09-26T01:46:38.474Z,4.49
2022-09-26T01:47:27.803Z,4.33
2022-09-26T01:48:20.378Z,4.70
2022-09-26T01:49:18.351Z,4.33
2022-09-26T01:50:27.860Z,4.42
2022-09-26T01:51:20.497Z,4.51
2022-09-26T01:52:25.973Z,4.57
2022-09-26T01:53:20.240Z,4.49
2022-09-26T01:54:16.351Z,4.69
2022-09-26T01:55:25.886Z,4.77
2022-09-26T01:56:17.703Z,4.21
2022-09-26T01:57:07.761Z,4.47
2022-09-26T01:58:13.695Z,4.68
2022-09-26T01:59:09.228Z,4.52
2022-09-26T02:00:00.241Z,4.73
2022-09-26T02:00:51.961Z,4.63
2022-09-26T02:01:42.592Z,4.61
2022-09-26T02:02:32.845Z,4.41
2022-09-26T02:03:22.915Z,4.35
2022-09-26T02:04:13.456Z,4.35
2022-09-26T02:05:04.224Z,4.49
2022-09-26T02:05:55.437Z,4.82
2022-09-26T02:06:48.162Z,4.61
2022-09-26T02:07:41.490Z,4.69
2022-09-26T02:08:40.693Z,4.18
2022-09-26T02:09:28.571Z,4.19
2022-09-26T02:10:38.570Z,4.61
2022-09-26T02:11:26.423Z,4.83
2022-09-26T02:12:18.348Z,4.50
2022-09-26T02:13:10.032Z,4.44
2022-09-26T02:14:15.574Z,4.11
2022-09-26T02:15:09.194Z,4.54
2022-09-26T02:15:58.546Z,4.54
2022-09-26T02:16:50.487Z,4.21
2022-09-26T02:17:42.188Z,4.69
2022-09-26T02:18:31.639Z,4.28
2022-09-26T02:19:27.773Z,4.04
2022-09-26T02:20:16.680Z,4.52
2022-09-26T02:21:15.474Z,4.45
2022-09-26T02:22:02.261Z,4.27
2022-09-26T02:22:48.649Z,4.31
2022-09-26T02:23:35.071Z,4.48
2022-09-26T02:24:22.725Z,4.53
2022-09-26T02:25:11.778Z,4.50
2022-09-26T02:25:58.307Z,4.31
2022-09-26T02:26:46.048Z,4.33
2022-09-26T02:27:32.529Z,4.31
2022-09-26T02:28:18.903Z,4.39
2022-09-26T02:29:06.214Z,4.31
2022-09-26T02:29:52.942Z,4.60
2022-09-26T02:30:41.902Z,4.23
2022-09-26T02:31:32.209Z,4.31
2022-09-26T02:32:21.713Z,4.31
2022-09-26T02:33:08.319Z,4.14
2022-09-26T02:33:54.969Z,4.12
2022-09-26T02:34:44.976Z,4.36
2022-09-26T02:35:50.498Z,4.04
2022-09-26T02:36:38.195Z,4.47
2022-09-26T02:37:25.425Z,4.28
2022-09-26T02:38:11.755Z,4.09
2022-09-26T02:39:10.016Z,4.44
2022-09-26T02:40:02.241Z,4.26
2022-09-26T02:41:01.211Z,4.15
2022-09-26T02:42:08.487Z,4.29
2022-09-26T02:43:05.138Z,4.41
2022-09-26T02:44:06.629Z,4.33
2022-09-26T02:45:11.903Z,4.06
2022-09-26T02:46:08.102Z,4.33
2022-09-26T02:47:01.084Z,4.57
2022-09-26T02:48:03.159Z,4.27
2022-09-26T02:49:04.688Z,3.81
2022-09-26T02:50:11.462Z,4.17
2022-09-26T02:51:17.519Z,4.13
2022-09-26T02:52:09.663Z,4.39
2022-09-26T02:53:14.767Z,4.08
2022-09-26T02:54:22.302Z,4.15
2022-09-26T02:55:16.162Z,4.79
2022-09-26T02:56:23.455Z,4.30
2022-09-26T02:57:12.934Z,4.51
2022-09-26T02:58:07.069Z,4.18
2022-09-26T02:59:04.313Z,4.11
2022-09-26T03:00:03.031Z,4.10
2022-09-26T03:00:52.085Z,4.07
2022-09-26T03:01:44.957Z,4.08
2022-09-26T03:02:31.292Z,4.31
2022-09-26T03:03:41.335Z,3.93
2022-09-26T03:04:56.982Z,4.12
2022-09-26T03:05:46.797Z,4.17
2022-09-26T03:06:36.414Z,4.33
2022-09-26T03:07:31.143Z,4.29
2022-09-26T03:08:23.329Z,4.22
2022-09-26T03:09:12.437Z,4.13
2022-09-26T03:10:03.727Z,3.99
2022-09-26T03:10:51.887Z,3.98
2022-09-26T03:11:41.159Z,3.94
2022-09-26T03:12:30.969Z,4.01
2022-09-26T03:13:19.492Z,4.17
2022-09-26T03:14:07.969Z,4.19
2022-09-26T03:14:58.728Z,4.13
2022-09-26T03:15:50.364Z,4.07
2022-09-26T03:16:40.610Z,4.14
2022-09-26T03:17:28.975Z,4.41
2022-09-26T03:18:19.893Z,4.12
2022-09-26T03:19:09.336Z,3.99
2022-09-26T03:20:05.014Z,4.01
2022-09-26T03:20:54.159Z,3.94
2022-09-26T03:21:40.508Z,3.89
2022-09-26T03:22:29.651Z,4.09
2022-09-26T03:23:16.091Z,3.67
2022-09-26T03:24:03.872Z,3.86
2022-09-26T03:24:50.306Z,3.93
2022-09-26T03:25:37.073Z,4.05
2022-09-26T03:26:28.933Z,4.44
2022-09-26T03:27:20.002Z,4.25
2022-09-26T03:28:10.030Z,4.06
2022-09-26T03:28:56.707Z,4.23
2022-09-26T03:29:45.920Z,3.93
2022-09-26T03:30:39.603Z,3.78
2022-09-26T03:31:52.190Z,4.20
2022-09-26T03:32:38.819Z,4.17
2022-09-26T03:33:25.699Z,4.14
2022-09-26T03:34:13.423Z,3.95
2022-09-26T03:34:59.995Z,3.84
2022-09-26T03:35:46.500Z,3.85
2022-09-26T03:36:32.999Z,4.32
2022-09-26T03:37:21.722Z,3.95
2022-09-26T03:38:13.629Z,4.01
2022-09-26T03:39:05.272Z,4.26
2022-09-26T03:40:08.529Z,3.87
2022-09-26T03:41:27.420Z,4.19
2022-09-26T03:42:24.703Z,4.07
2022-09-26T03:43:13.342Z,4.09
2022-09-26T03:43:59.959Z,4.10
2022-09-26T03:44:57.038Z,4.17
2022-09-26T03:45:49.306Z,3.99
2022-09-26T03:46:40.431Z,4.00
2022-09-26T03:47:28.886Z,4.25
2022-09-26T03:48:16.694Z,4.34
2022-09-26T03:49:03.553Z,4.04
2022-09-26T03:49:49.924Z,4.64
2022-09-26T03:50:36.510Z,4.40
2022-09-26T03:51:22.854Z,3.87
2022-09-26T03:52:10.609Z,3.84
2022-09-26T03:52:57.174Z,4.34
2022-09-26T03:53:45.391Z,4.12
2022-09-26T03:54:34.629Z,4.57
2022-09-26T03:55:21.566Z,4.27
2022-09-26T03:56:10.011Z,3.91
2022-09-26T03:56:56.545Z,3.84
2022-09-26T03:57:42.943Z,3.78
2022-09-26T03:58:40.311Z,3.92
2022-09-26T03:59:26.681Z,4.25
2022-09-26T04:00:13.172Z,3.95
2022-09-26T04:01:23.119Z,4.42
2022-09-26T04:02:10.659Z,4.14
2022-09-26T04:03:02.867Z,4.07
2022-09-26T04:04:00.490Z,3.78
2022-09-26T04:04:46.846Z,4.10
2022-09-26T04:05:35.945Z,4.33
2022-09-26T04:06:22.726Z,4.14
2022-09-26T04:07:10.175Z,4.30
2022-09-26T04:07:59.901Z,4.54
2022-09-26T04:08:49.268Z,3.93
2022-09-26T04:09:35.982Z,4.22
2022-09-26T04:10:24.116Z,4.23
2022-09-26T04:11:12.730Z,4.28
2022-09-26T04:11:59.117Z,4.04
2022-09-26T04:12:45.926Z,4.18
2022-09-26T04:13:50.130Z,4.63
2022-09-26T04:14:37.973Z,4.07
2022-09-26T04:15:24.567Z,4.34
2022-09-26T04:16:23.521Z,4.57
2022-09-26T04:17:15.491Z,4.52
2022-09-26T04:18:05.016Z,4.68
2022-09-26T04:18:56.466Z,4.49
2022-09-26T04:19:43.876Z,4.10
2022-09-26T04:20:31.774Z,4.25
2022-09-26T04:21:19.301Z,4.29
2022-09-26T04:22:08.133Z,4.16
2022-09-26T04:22:55.177Z,4.69
2022-09-26T04:23:42.651Z,4.62
2022-09-26T04:24:29.931Z,5.01
2022-09-26T04:25:16.577Z,4.63
2022-09-26T04:26:10.802Z,4.29
2022-09-26T04:26:57.205Z,4.61
2022-09-26T04:27:44.285Z,4.56
2022-09-26T04:28:30.903Z,4.55
2022-09-26T04:29:17.679Z,4.63
2022-09-26T04:30:26.815Z,4.39
2022-09-26T04:31:17.959Z,4.65
2022-09-26T04:32:12.461Z,4.72
2022-09-26T04:33:25.165Z,4.80
2022-09-26T04:34:27.390Z,4.73
2022-09-26T04:35:13.945Z,5.18
2022-09-26T04:36:01.727Z,5.18
2022-09-26T04:36:51.217Z,4.99
2022-09-26T04:37:38.023Z,4.96
2022-09-26T04:38:24.435Z,5.08
2022-09-26T04:39:10.937Z,5.39
2022-09-26T04:39:57.283Z,4.79
2022-09-26T04:40:43.606Z,4.98
2022-09-26T04:41:31.632Z,5.30
2022-09-26T04:42:19.710Z,4.83
2022-09-26T04:43:06.214Z,5.09
2022-09-26T04:43:53.814Z,5.12
2022-09-26T04:44:40.227Z,5.16
2022-09-26T04:45:26.660Z,5.18
2022-09-26T04:46:21.712Z,5.16
2022-09-26T04:47:11.269Z,5.21
2022-09-26T04:48:16.833Z,5.31
2022-09-26T04:49:03.299Z,4.75
2022-09-26T04:49:49.808Z,4.71
2022-09-26T04:50:37.853Z,5.02
2022-09-26T04:51:27.399Z,5.50
2022-09-26T04:52:13.784Z,5.47
2022-09-26T04:53:01.196Z,5.56
2022-09-26T04:53:48.089Z,4.96
2022-09-26T04:54:44.589Z,5.10
2022-09-26T04:55:31.048Z,5.24
2022-09-26T04:56:18.908Z,4.70
2022-09-26T04:57:05.670Z,5.26
2022-09-26T04:57:52.290Z,5.22
2022-09-26T04:58:38.947Z,5.32
2022-09-26T04:59:25.298Z,5.10
2022-09-26T05:00:19.675Z,5.15
2022-09-26T05:01:18.542Z,4.83
2022-09-26T05:02:17.208Z,4.90
2022-09-26T05:03:03.727Z,5.36
2022-09-26T05:03:50.454Z,5.28
2022-09-26T05:04:37.126Z,4.92
2022-09-26T05:05:24.247Z,5.18
2022-09-26T05:06:11.579Z,5.14
2022-09-26T05:06:59.187Z,5.39
2022-09-26T05:07:50.357Z,5.25
2022-09-26T05:08:37.441Z,5.09
2022-09-26T05:09:25.168Z,5.10
2022-09-26T05:10:16.992Z,4.93
2022-09-26T05:11:10.389Z,4.78
2022-09-26T05:11:57.355Z,4.57
2022-09-26T05:12:43.711Z,5.19
2022-09-26T05:13:31.469Z,5.57
2022-09-26T05:14:18.461Z,5.32
2022-09-26T05:15:08.955Z,5.35
2022-09-26T05:15:55.788Z,5.55
2022-09-26T05:16:43.457Z,5.42
2022-09-26T05:17:33.702Z,5.86
2022-09-26T05:18:23.428Z,5.98
2022-09-26T05:19:10.016Z,5.85
2022-09-26T05:20:03.886Z,5.78
2022-09-26T05:21:09.030Z,5.67
2022-09-26T05:21:55.458Z,5.89
2022-09-26T05:22:41.821Z,5.72
2022-09-26T05:23:48.043Z,5.80
2022-09-26T05:24:53.257Z,5.18
2022-09-26T05:25:59.913Z,5.89
2022-09-26T05:26:48.766Z,5.43
2022-09-26T05:27:35.113Z,5.13
2022-09-26T05:28:21.599Z,5.72
2022-09-26T05:29:09.255Z,5.80
2022-09-26T05:30:04.984Z,5.38
2022-09-26T05:30:52.286Z,5.56
2022-09-26T05:31:39.805Z,5.41
2022-09-26T05:32:28.528Z,5.56
2022-09-26T05:33:15.139Z,5.95
2022-09-26T05:34:01.715Z,5.41
2022-09-26T05:34:49.026Z,5.24
2022-09-26T05:35:38.367Z,5.74
2022-09-26T05:36:26.052Z,5.56
2022-09-26T05:37:12.446Z,6.04
2022-09-26T05:37:59.781Z,6.24
2022-09-26T05:38:46.719Z,6.45
2022-09-26T05:39:53.376Z,6.22
2022-09-26T05:40:59.237Z,5.97
2022-09-26T05:41:46.882Z,5.82
2022-09-26T05:42:33.319Z,5.94
2022-09-26T05:43:19.678Z,6.04
2022-09-26T05:44:06.240Z,6.00
2022-09-26T05:44:54.605Z,6.52
2022-09-26T05:45:41.455Z,6.34
2022-09-26T05:46:29.438Z,5.94
2022-09-26T05:47:19.956Z,6.66
2022-09-26T05:48:08.732Z,6.35
2022-09-26T05:48:57.823Z,6.37
2022-09-26T05:49:45.317Z,6.03
2022-09-26T05:50:36.983Z,6.52
2022-09-26T05:51:25.322Z,6.51
2022-09-26T05:52:12.094Z,6.47
2022-09-26T05:52:59.656Z,6.37
2022-09-26T05:53:49.295Z,5.85
2022-09-26T05:54:39.560Z,6.76
2022-09-26T05:55:54.675Z,6.42
2022-09-26T05:56:55.258Z,6.11
2022-09-26T05:57:54.707Z,6.15
2022-09-26T05:58:44.802Z,6.18
2022-09-26T05:59:37.138Z,6.18
2022-09-26T06:00:52.425Z,6.08
2022-09-26T06:01:39.710Z,5.97
2022-09-26T06:02:37.571Z,5.87
2022-09-26T06:03:43.119Z,6.11
2022-09-26T06:04:33.397Z,5.98
2022-09-26T06:05:40.527Z,6.21
2022-09-26T06:06:39.445Z,6.00
2022-09-26T06:07:32.409Z,5.58
2022-09-26T06:08:18.831Z,5.93
2022-09-26T06:09:10.277Z,6.05
2022-09-26T06:10:26.157Z,6.39
2022-09-26T06:11:15.890Z,6.52
2022-09-26T06:12:02.240Z,6.03
2022-09-26T06:12:51.003Z,5.89
2022-09-26T06:13:37.658Z,5.78
2022-09-26T06:14:26.079Z,5.74
2022-09-26T06:15:13.391Z,6.44
2022-09-26T06:16:01.542Z,6.49
2022-09-26T06:16:48.703Z,6.09
2022-09-26T06:17:35.755Z,6.44
2022-09-26T06:18:24.305Z,6.11
2022-09-26T06:19:10.675Z,6.10
2022-09-26T06:19:57.029Z,6.04
2022-09-26T06:20:43.442Z,6.02
2022-09-26T06:21:31.332Z,5.57
2022-09-26T06:22:28.784Z,6.11
2022-09-26T06:23:15.204Z,6.26
2022-09-26T06:24:04.572Z,6.62
2022-09-26T06:24:51.890Z,6.20
2022-09-26T06:25:40.196Z,6.35
2022-09-26T06:26:28.742Z,6.15
2022-09-26T06:27:15.571Z,5.86
2022-09-26T06:28:02.459Z,5.97
2022-09-26T06:28:58.337Z,6.35
2022-09-26T06:29:46.057Z,6.24
2022-09-26T06:30:33.039Z,6.68
2022-09-26T06:31:30.463Z,6.46
2022-09-26T06:32:29.209Z,6.19
2022-09-26T06:33:35.478Z,6.21
2022-09-26T06:34:40.373Z,6.57
2022-09-26T06:35:47.301Z,6.21
2022-09-26T06:36:40.290Z,6.10
2022-09-26T06:37:27.799Z,6.36
2022-09-26T06:38:14.269Z,6.29
2022-09-26T06:39:00.748Z,6.12
2022-09-26T06:39:54.679Z,6.00
2022-09-26T06:40:45.401Z,5.85
2022-09-26T06:41:32.077Z,6.16
2022-09-26T06:42:18.402Z,6.62
2022-09-26T06:43:27.741Z,6.53
2022-09-26T06:44:36.777Z,6.25
2022-09-26T06:45:55.515Z,6.37
2022-09-26T06:47:07.195Z,6.33
2022-09-26T06:48:01.912Z,6.59
2022-09-26T06:49:06.799Z,6.88
2022-09-26T06:50:05.142Z,6.44
2022-09-26T06:50:56.973Z,5.85
2022-09-26T06:51:46.264Z,5.78
2022-09-26T06:52:35.042Z,6.86
2022-09-26T06:53:22.198Z,6.53
2022-09-26T06:54:08.590Z,6.17
2022-09-26T06:54:55.237Z,6.55
2022-09-26T06:55:41.527Z,6.26
2022-09-26T06:56:28.658Z,6.26
2022-09-26T06:57:15.581Z,6.26
2022-09-26T06:58:02.459Z,6.17
2022-09-26T06:58:52.474Z,5.96
2022-09-26T06:59:44.238Z,6.31
2022-09-26T07:00:39.747Z,5.86
2022-09-26T07:01:54.173Z,6.48
2022-09-26T07:02:59.366Z,5.80
2022-09-26T07:04:02.018Z,5.54
2022-09-26T07:04:57.511Z,6.54
2022-09-26T07:05:51.629Z,5.75
2022-09-26T07:06:38.699Z,6.00
2022-09-26T07:07:26.682Z,5.97
2022-09-26T07:08:14.301Z,6.13
2022-09-26T07:09:04.073Z,6.58
2022-09-26T07:10:15.115Z,6.29
2022-09-26T07:11:31.062Z,6.12
2022-09-26T07:12:17.214Z,5.34
2022-09-26T07:13:05.834Z,5.82
2022-09-26T07:13:52.965Z,5.75
2022-09-26T07:14:39.572Z,5.89
2022-09-26T07:15:47.307Z,5.87
2022-09-26T07:16:45.422Z,5.20
2022-09-26T07:17:45.920Z,5.78
2022-09-26T07:18:48.020Z,5.52
2022-09-26T07:19:54.915Z,5.64
2022-09-26T07:21:08.088Z,5.18
2022-09-26T07:22:15.322Z,4.49
2022-09-26T07:23:09.867Z,5.24
2022-09-26T07:23:57.348Z,4.82
2022-09-26T07:24:50.078Z,4.73
2022-09-26T07:25:38.698Z,4.51
2022-09-26T07:26:25.407Z,4.48
2022-09-26T07:27:12.313Z,4.28
2022-09-26T07:27:59.694Z,4.64
2022-09-26T07:28:56.408Z,4.31
2022-09-26T07:29:47.158Z,4.19
2022-09-26T07:30:35.065Z,3.85
2022-09-26T07:31:31.764Z,4.09
2022-09-26T07:32:36.813Z,3.91
2022-09-26T07:33:40.094Z,3.89
2022-09-26T07:34:27.811Z,3.96
2022-09-26T07:35:15.953Z,3.82
2022-09-26T07:36:05.472Z,3.76
2022-09-26T07:36:52.822Z,4.08
2022-09-26T07:37:39.175Z,3.93
2022-09-26T07:38:25.791Z,3.56
2022-09-26T07:39:13.254Z,3.71
2022-09-26T07:40:01.734Z,3.53
2022-09-26T07:40:54.296Z,3.94
2022-09-26T07:41:42.980Z,3.92
2022-09-26T07:42:29.458Z,3.90
2022-09-26T07:43:20.067Z,3.89
2022-09-26T07:45:27.746Z,3.93
2022-09-26T07:46:34.506Z,3.41
2022-09-26T07:47:40.395Z,3.46
2022-09-26T07:48:56.043Z,3.65
2022-09-26T07:50:12.804Z,3.72
2022-09-26T07:51:11.230Z,3.54
2022-09-26T07:52:04.106Z,3.81
2022-09-26T07:53:08.674Z,3.92
2022-09-26T07:54:29.892Z,3.76
2022-09-26T07:55:54.768Z,3.54
2022-09-26T07:56:57.346Z,3.61
2022-09-26T07:58:03.330Z,3.74
2022-09-26T07:59:19.003Z,3.86
2022-09-26T08:00:19.477Z,3.97
2022-09-26T08:01:32.123Z,3.66
2022-09-26T08:02:26.518Z,4.16
2022-09-26T08:03:14.453Z,3.94
2022-09-26T08:04:02.999Z,3.96
2022-09-26T08:04:58.768Z,3.53
2022-09-26T08:05:47.531Z,3.94
2022-09-26T08:06:35.101Z,3.89
2022-09-26T08:07:21.662Z,3.63
2022-09-26T08:08:15.862Z,3.76
2022-09-26T08:09:28.427Z,3.71
2022-09-26T08:10:35.190Z,3.84
2022-09-26T08:11:41.918Z,3.81
2022-09-26T08:12:39.561Z,3.70
2022-09-26T08:13:34.236Z,3.56
2022-09-26T08:14:35.953Z,3.32
2022-09-26T08:15:35.407Z,3.30
2022-09-26T08:16:25.128Z,3.20
2022-09-26T08:17:16.136Z,3.28
2022-09-26T08:18:02.509Z,3.57
2022-09-26T08:18:52.571Z,3.51
2022-09-26T08:19:40.692Z,3.73
2022-09-26T08:20:31.933Z,3.50
2022-09-26T08:21:20.310Z,3.49
2022-09-26T08:22:08.561Z,3.49
2022-09-26T08:22:55.742Z,3.44
2022-09-26T08:23:42.306Z,3.17
2022-09-26T08:25:00.046Z,3.17
2022-09-26T08:26:12.083Z,3.44
2022-09-26T08:27:09.798Z,3.08
2022-09-26T08:28:00.491Z,3.06
2022-09-26T08:28:47.822Z,3.38
2022-09-26T08:29:36.514Z,2.82
2022-09-26T08:30:24.749Z,2.84
2022-09-26T08:31:11.461Z,2.85
2022-09-26T08:31:58.838Z,2.73
2022-09-26T08:32:55.063Z,2.73
2022-09-26T08:33:41.996Z,3.11
2022-09-26T08:34:29.194Z,2.77
2022-09-26T08:35:38.887Z,2.71
2022-09-26T08:36:39.813Z,2.23
2022-09-26T08:37:44.967Z,2.67
2022-09-26T08:38:50.170Z,2.41
2022-09-26T08:39:55.727Z,2.28
2022-09-26T08:41:07.817Z,2.48
2022-09-26T08:42:23.777Z,2.47
2022-09-26T08:43:38.999Z,2.59
2022-09-26T08:44:50.175Z,2.37
2022-09-26T08:46:11.873Z,1.96
2022-09-26T08:47:44.110Z,2.27
2022-09-26T08:48:48.388Z,1.90
2022-09-26T08:49:55.294Z,2.06
2022-09-26T08:50:59.667Z,2.25
2022-09-26T08:51:54.065Z,2.07
2022-09-26T08:52:45.557Z,2.48
2022-09-26T08:53:39.519Z,2.14
2022-09-26T08:54:37.540Z,1.84
2022-09-26T08:55:30.414Z,2.12
2022-09-26T08:56:24.421Z,2.14
2022-09-26T08:57:29.382Z,2.06
2022-09-26T08:58:30.615Z,2.38
2022-09-26T08:59:29.439Z,2.47
2022-09-26T09:00:21.330Z,1.80
2022-09-26T09:01:26.425Z,1.76
2022-09-26T09:02:34.101Z,1.95
2022-09-26T09:03:33.277Z,2.17
2022-09-26T09:04:43.068Z,2.10
2022-09-26T09:05:32.989Z,1.97
2022-09-26T09:06:20.787Z,1.83
2022-09-26T09:07:18.073Z,1.67
2022-09-26T09:08:11.317Z,1.88
2022-09-26T09:09:05.534Z,1.94
2022-09-26T09:10:14.616Z,2.07
2022-09-26T09:11:07.776Z,1.85
2022-09-26T09:12:06.918Z,1.93
2022-09-26T09:13:01.762Z,2.06
2022-09-26T09:14:17.824Z,2.26
2022-09-26T09:15:28.823Z,2.36
2022-09-26T09:16:59.231Z,2.33
2022-09-26T09:18:29.156Z,2.24
2022-09-26T09:19:42.222Z,2.29
2022-09-26T09:20:51.675Z,2.29
2022-09-26T09:22:15.179Z,2.13
2022-09-26T09:23:34.357Z,2.52
2022-09-26T09:24:20.749Z,2.32
2022-09-26T09:25:17.571Z,2.05
2022-09-26T09:28:45.929Z,2.41
2022-09-26T09:29:49.615Z,1.95
2022-09-26T09:31:10.837Z,2.02
2022-09-26T09:32:19.661Z,1.97
2022-09-26T09:33:29.438Z,2.17
2022-09-26T09:34:40.652Z,2.33
2022-09-26T09:35:58.472Z,2.22
2022-09-26T09:37:12.477Z,2.36
2022-09-26T09:38:28.189Z,2.36
2022-09-26T09:39:32.699Z,2.23
2022-09-26T09:40:42.863Z,2.27
2022-09-26T09:41:35.447Z,2.35
2022-09-26T09:42:21.943Z,2.31
2022-09-26T09:43:18.962Z,2.54
2022-09-26T09:44:22.298Z,2.60
2022-09-26T09:45:21.333Z,2.51
2022-09-26T09:46:15.367Z,2.30
2022-09-26T09:47:02.095Z,2.34
2022-09-26T09:47:48.481Z,2.05
2022-09-26T09:48:34.924Z,2.18
2022-09-26T09:49:23.054Z,2.36
2022-09-26T09:50:30.799Z,2.43
2022-09-26T09:51:39.123Z,2.21
2022-09-26T09:52:39.267Z,2.13
2022-09-26T09:53:43.623Z,2.38
2022-09-26T09:54:32.731Z,2.21
2022-09-26T09:55:45.319Z,2.41
2022-09-26T09:56:45.355Z,2.36
2022-09-26T09:57:33.077Z,2.35
2022-09-26T09:58:31.175Z,2.54
2022-09-26T09:59:46.250Z,2.48
2022-09-26T10:00:41.336Z,2.36
2022-09-26T10:01:41.399Z,2.40
2022-09-26T10:02:58.376Z,2.52
2022-09-26T10:03:57.427Z,2.71
2022-09-26T10:05:00.627Z,2.67
2022-09-26T10:05:48.598Z,2.81
2022-09-26T10:06:47.516Z,3.00
2022-09-26T10:07:38.744Z,2.80
2022-09-26T10:08:51.825Z,2.51
2022-09-26T10:09:56.877Z,2.38
2022-09-26T10:11:09.075Z,2.39
2022-09-26T10:12:16.814Z,2.61
2022-09-26T10:13:25.711Z,2.57
2022-09-26T10:14:42.673Z,2.57
2022-09-26T10:15:29.489Z,2.82
2022-09-26T10:16:27.939Z,2.53
2022-09-26T10:17:21.960Z,2.41
2022-09-26T10:18:25.195Z,2.55
2022-09-26T10:19:36.336Z,2.29
2022-09-26T10:20:53.020Z,2.22
2022-09-26T10:21:42.686Z,2.55
2022-09-26T10:22:42.591Z,2.42
2022-09-26T10:23:35.003Z,2.48
2022-09-26T10:24:34.081Z,2.54
2022-09-26T10:25:27.452Z,2.30
2022-09-26T10:26:16.217Z,2.38
2022-09-26T10:27:23.719Z,2.58
2022-09-26T10:28:24.455Z,2.51
2022-09-26T10:29:33.739Z,2.58
2022-09-26T10:30:30.315Z,2.64
2022-09-26T10:31:42.386Z,2.56
2022-09-26T10:32:45.641Z,2.20
2022-09-26T10:33:59.233Z,2.60
2022-09-26T10:35:03.483Z,2.79
2022-09-26T10:35:53.275Z,3.11
2022-09-26T10:36:40.903Z,3.12
2022-09-26T10:37:30.844Z,2.89
2022-09-26T10:38:29.564Z,2.52
2022-09-26T10:39:48.108Z,2.66
2022-09-26T10:40:48.436Z,2.40
2022-09-26T10:41:40.035Z,2.58
2022-09-26T10:42:32.022Z,2.48
2022-09-26T10:43:28.700Z,2.50
2022-09-26T10:44:33.828Z,2.44
2022-09-26T10:45:35.086Z,2.22
2022-09-26T10:47:00.349Z,2.54
2022-09-26T10:48:06.115Z,2.42
2022-09-26T10:49:15.000Z,2.49
2022-09-26T10:50:26.003Z,2.58
2022-09-26T10:51:50.756Z,2.44
2022-09-26T10:52:43.421Z,2.46
2022-09-26T10:53:36.385Z,2.23
2022-09-26T10:54:26.710Z,2.60
2022-09-26T10:55:17.054Z,2.48
2022-09-26T10:56:12.636Z,2.40
2022-09-26T10:56:59.731Z,2.18
2022-09-26T10:57:53.400Z,2.44
2022-09-26T10:58:46.085Z,2.28
2022-09-26T10:59:39.749Z,2.47
2022-09-26T11:00:59.986Z,2.65
2022-09-26T11:01:51.365Z,2.63
2022-09-26T11:02:46.803Z,2.54
2022-09-26T11:03:40.165Z,2.50
2022-09-26T11:05:10.824Z,2.67
2022-09-26T11:06:40.961Z,2.90
2022-09-26T11:07:39.481Z,2.70
2022-09-26T11:09:03.131Z,2.78
2022-09-26T11:10:34.317Z,2.66
2022-09-26T11:11:39.388Z,2.53
2022-09-26T11:12:32.182Z,2.61
2022-09-26T11:13:28.411Z,2.73
2022-09-26T11:14:29.046Z,2.80
2022-09-26T11:15:30.441Z,3.05
2022-09-26T11:16:20.491Z,2.81
2022-09-26T11:17:17.545Z,2.55
2022-09-26T11:18:05.118Z,2.71
2022-09-26T11:19:02.661Z,2.90
2022-09-26T11:20:02.130Z,2.79
2022-09-26T11:20:54.432Z,2.68
2022-09-26T11:21:41.446Z,2.83
2022-09-26T11:22:39.811Z,2.68
2022-09-26T11:23:49.094Z,3.23
2022-09-26T11:24:42.715Z,2.96
2022-09-26T11:25:35.605Z,3.08
2022-09-26T11:26:33.479Z,2.89
2022-09-26T11:27:43.251Z,2.98
2022-09-26T11:28:36.875Z,2.69
2022-09-26T11:30:02.082Z,3.04
2022-09-26T11:31:01.592Z,2.69
2022-09-26T11:31:52.004Z,2.80
2022-09-26T11:33:00.341Z,2.81
2022-09-26T11:34:11.822Z,2.95
2022-09-26T11:35:15.514Z,2.61
2022-09-26T11:36:10.916Z,2.78
2022-09-26T11:37:03.549Z,2.59
2022-09-26T11:37:53.115Z,2.59
2022-09-26T11:38:47.694Z,2.64
2022-09-26T11:39:57.351Z,3.05
2022-09-26T11:40:46.684Z,2.52
2022-09-26T11:41:56.005Z,2.44
2022-09-26T11:42:55.390Z,2.58
2022-09-26T11:43:59.160Z,2.75
2022-09-26T11:45:16.072Z,2.71
2022-09-26T11:46:23.900Z,2.66
2022-09-26T11:47:29.720Z,2.85
2022-09-26T11:48:38.337Z,3.00
2022-09-26T11:49:52.307Z,2.87
2022-09-26T11:51:15.553Z,2.56
2022-09-26T11:52:04.809Z,2.80
2022-09-26T11:53:17.209Z,2.78
2022-09-26T11:54:12.776Z,2.39
2022-09-26T11:55:02.136Z,2.46
2022-09-26T11:56:06.872Z,2.38
2022-09-26T11:56:56.049Z,2.22
2022-09-26T11:58:03.624Z,2.64
2022-09-26T11:59:02.164Z,2.34
2022-09-26T12:00:06.052Z,2.26
2022-09-26T12:01:04.793Z,2.27
2022-09-26T12:01:57.196Z,2.79
2022-09-26T12:03:03.270Z,2.79
2022-09-26T12:03:52.846Z,2.88
2022-09-26T12:04:54.308Z,2.60
2022-09-26T12:06:00.570Z,2.50
2022-09-26T12:06:46.878Z,2.85
2022-09-26T12:07:54.739Z,2.51
2022-09-26T12:09:00.409Z,2.60
2022-09-26T12:09:49.519Z,2.21
2022-09-26T12:10:39.407Z,2.14
2022-09-26T12:11:42.320Z,2.05
2022-09-26T12:12:47.201Z,1.96
2022-09-26T12:13:47.173Z,2.38
2022-09-26T12:14:56.365Z,2.02
2022-09-26T12:16:09.926Z,2.28